sensor_id;sensor_type;location;lat;lon;timestamp;P1;durP1;ratioP1;P2;durP2;ratioP2
77136;SDS011;66102;48.542;-2.970;2023-03-23T00:01:49;25.33;;;4.90;;
77136;SDS011;66102;48.542;-2.970;2023-03-23T00:04:16;21.45;;;4.50;;
77136;SDS011;66102;48.542;-2.970;2023-03-23T00:06:42;25.08;;;4.55;;
77136;SDS011;66102;48.542;-2.970;2023-03-23T00:09:10;23.85;;;3.90;;
77136;SDS011;66102;48.542;-2.970;2023-03-23T00:11:36;22.42;;;4.40;;
77136;SDS011;66102;48.542;-2.970;2023-03-23T00:14:04;31.65;;;4.90;;
77136;SDS011;66102;48.542;-2.970;2023-03-23T00:16:31;35.33;;;6.60;;
77136;SDS011;66102;48.542;-2.970;2023-03-23T00:19:02;26.58;;;4.60;;
77136;SDS011;66102;48.542;-2.970;2023-03-23T00:21:31;24.00;;;5.50;;
77136;SDS011;66102;48.542;-2.970;2023-03-23T00:24:09;22.63;;;4.25;;
77136;SDS011;66102;48.542;-2.970;2023-03-23T00:26:36;25.90;;;4.22;;
77136;SDS011;66102;48.542;-2.970;2023-03-23T00:29:05;27.83;;;4.35;;
77136;SDS011;66102;48.542;-2.970;2023-03-23T00:31:32;26.92;;;4.15;;
77136;SDS011;66102;48.542;-2.970;2023-03-23T00:34:00;22.25;;;4.13;;
77136;SDS011;66102;48.542;-2.970;2023-03-23T00:36:27;23.58;;;4.45;;
77136;SDS011;66102;48.542;-2.970;2023-03-23T00:38:53;26.52;;;5.78;;
77136;SDS011;66102;48.542;-2.970;2023-03-23T00:41:24;23.38;;;4.95;;
77136;SDS011;66102;48.542;-2.970;2023-03-23T00:43:52;21.85;;;4.53;;
77136;SDS011;66102;48.542;-2.970;2023-03-23T00:46:18;17.00;;;2.88;;
77136;SDS011;66102;48.542;-2.970;2023-03-23T00:48:45;11.05;;;2.50;;
77136;SDS011;66102;48.542;-2.970;2023-03-23T00:51:12;9.00;;;2.45;;
77136;SDS011;66102;48.542;-2.970;2023-03-23T00:53:38;13.63;;;2.13;;
77136;SDS011;66102;48.542;-2.970;2023-03-23T00:56:05;8.90;;;1.60;;
77136;SDS011;66102;48.542;-2.970;2023-03-23T00:58:32;8.07;;;1.48;;
77136;SDS011;66102;48.542;-2.970;2023-03-23T01:00:58;7.68;;;1.23;;
77136;SDS011;66102;48.542;-2.970;2023-03-23T01:03:24;7.30;;;1.30;;
77136;SDS011;66102;48.542;-2.970;2023-03-23T01:05:51;8.00;;;1.55;;
77136;SDS011;66102;48.542;-2.970;2023-03-23T01:08:18;5.65;;;1.30;;
77136;SDS011;66102;48.542;-2.970;2023-03-23T01:10:44;2.63;;;1.20;;
77136;SDS011;66102;48.542;-2.970;2023-03-23T01:13:11;5.68;;;1.30;;
77136;SDS011;66102;48.542;-2.970;2023-03-23T01:15:37;4.60;;;1.15;;
77136;SDS011;66102;48.542;-2.970;2023-03-23T01:18:03;10.00;;;2.03;;
77136;SDS011;66102;48.542;-2.970;2023-03-23T01:20:30;5.78;;;1.40;;
77136;SDS011;66102;48.542;-2.970;2023-03-23T01:22:59;7.10;;;1.50;;
77136;SDS011;66102;48.542;-2.970;2023-03-23T01:25:29;7.43;;;1.30;;
77136;SDS011;66102;48.542;-2.970;2023-03-23T01:27:55;8.10;;;1.55;;
77136;SDS011;66102;48.542;-2.970;2023-03-23T01:30:22;7.10;;;1.67;;
77136;SDS011;66102;48.542;-2.970;2023-03-23T01:32:48;8.77;;;1.60;;
77136;SDS011;66102;48.542;-2.970;2023-03-23T01:35:15;12.93;;;2.03;;
77136;SDS011;66102;48.542;-2.970;2023-03-23T01:37:41;9.20;;;2.10;;
77136;SDS011;66102;48.542;-2.970;2023-03-23T01:40:08;15.93;;;2.83;;
77136;SDS011;66102;48.542;-2.970;2023-03-23T01:42:35;11.30;;;2.42;;
77136;SDS011;66102;48.542;-2.970;2023-03-23T01:47:43;13.95;;;2.95;;
77136;SDS011;66102;48.542;-2.970;2023-03-23T01:50:09;10.88;;;2.25;;
77136;SDS011;66102;48.542;-2.970;2023-03-23T01:52:36;13.80;;;2.65;;
77136;SDS011;66102;48.542;-2.970;2023-03-23T01:55:02;17.45;;;2.70;;
77136;SDS011;66102;48.542;-2.970;2023-03-23T01:57:29;11.25;;;2.28;;
77136;SDS011;66102;48.542;-2.970;2023-03-23T01:59:56;12.48;;;2.33;;
77136;SDS011;66102;48.542;-2.970;2023-03-23T02:02:24;15.73;;;2.95;;
77136;SDS011;66102;48.542;-2.970;2023-03-23T02:04:51;11.50;;;2.17;;
77136;SDS011;66102;48.542;-2.970;2023-03-23T02:07:17;11.35;;;2.30;;
77136;SDS011;66102;48.542;-2.970;2023-03-23T02:09:45;10.82;;;2.40;;
77136;SDS011;66102;48.542;-2.970;2023-03-23T02:12:11;10.95;;;2.03;;
77136;SDS011;66102;48.542;-2.970;2023-03-23T02:14:37;10.95;;;1.90;;
77136;SDS011;66102;48.542;-2.970;2023-03-23T02:17:08;14.27;;;2.30;;
77136;SDS011;66102;48.542;-2.970;2023-03-23T02:24:56;17.50;;;2.72;;
77136;SDS011;66102;48.542;-2.970;2023-03-23T02:30:24;13.32;;;3.17;;
77136;SDS011;66102;48.542;-2.970;2023-03-23T02:35:36;15.10;;;2.55;;
77136;SDS011;66102;48.542;-2.970;2023-03-23T02:38:13;12.02;;;2.30;;
77136;SDS011;66102;48.542;-2.970;2023-03-23T02:40:47;14.63;;;2.53;;
77136;SDS011;66102;48.542;-2.970;2023-03-23T02:43:15;10.38;;;2.10;;
77136;SDS011;66102;48.542;-2.970;2023-03-23T02:45:42;11.75;;;2.60;;
77136;SDS011;66102;48.542;-2.970;2023-03-23T02:48:09;15.10;;;2.22;;
77136;SDS011;66102;48.542;-2.970;2023-03-23T02:50:36;16.08;;;3.17;;
77136;SDS011;66102;48.542;-2.970;2023-03-23T02:53:03;11.35;;;2.05;;
77136;SDS011;66102;48.542;-2.970;2023-03-23T02:55:31;13.50;;;2.45;;
77136;SDS011;66102;48.542;-2.970;2023-03-23T02:57:57;13.63;;;2.78;;
77136;SDS011;66102;48.542;-2.970;2023-03-23T03:00:26;14.43;;;2.42;;
77136;SDS011;66102;48.542;-2.970;2023-03-23T03:02:53;10.90;;;2.63;;
77136;SDS011;66102;48.542;-2.970;2023-03-23T03:05:29;16.38;;;3.20;;
77136;SDS011;66102;48.542;-2.970;2023-03-23T03:08:01;12.93;;;2.40;;
77136;SDS011;66102;48.542;-2.970;2023-03-23T03:10:34;16.95;;;2.80;;
77136;SDS011;66102;48.542;-2.970;2023-03-23T03:13:05;15.15;;;2.83;;
77136;SDS011;66102;48.542;-2.970;2023-03-23T03:15:44;17.65;;;3.20;;
77136;SDS011;66102;48.542;-2.970;2023-03-23T03:20:39;16.75;;;3.20;;
77136;SDS011;66102;48.542;-2.970;2023-03-23T03:23:06;15.68;;;2.80;;
77136;SDS011;66102;48.542;-2.970;2023-03-23T03:25:34;16.15;;;2.92;;
77136;SDS011;66102;48.542;-2.970;2023-03-23T03:28:00;16.58;;;2.78;;
77136;SDS011;66102;48.542;-2.970;2023-03-23T03:30:29;19.77;;;4.25;;
77136;SDS011;66102;48.542;-2.970;2023-03-23T03:32:56;16.20;;;3.22;;
77136;SDS011;66102;48.542;-2.970;2023-03-23T03:35:25;20.20;;;2.92;;
77136;SDS011;66102;48.542;-2.970;2023-03-23T03:37:51;24.23;;;3.85;;
77136;SDS011;66102;48.542;-2.970;2023-03-23T03:40:19;17.58;;;3.70;;
77136;SDS011;66102;48.542;-2.970;2023-03-23T03:42:45;20.23;;;3.10;;
77136;SDS011;66102;48.542;-2.970;2023-03-23T03:45:12;21.33;;;3.50;;
77136;SDS011;66102;48.542;-2.970;2023-03-23T03:47:39;21.60;;;3.58;;
77136;SDS011;66102;48.542;-2.970;2023-03-23T03:50:05;20.58;;;4.07;;
77136;SDS011;66102;48.542;-2.970;2023-03-23T03:52:31;25.33;;;3.63;;
77136;SDS011;66102;48.542;-2.970;2023-03-23T03:54:58;19.90;;;3.83;;
77136;SDS011;66102;48.542;-2.970;2023-03-23T03:57:24;24.55;;;4.40;;
77136;SDS011;66102;48.542;-2.970;2023-03-23T03:59:51;18.88;;;4.35;;
77136;SDS011;66102;48.542;-2.970;2023-03-23T04:02:17;24.02;;;4.60;;
77136;SDS011;66102;48.542;-2.970;2023-03-23T04:04:48;16.48;;;3.88;;
77136;SDS011;66102;48.542;-2.970;2023-03-23T04:07:14;26.98;;;4.30;;
77136;SDS011;66102;48.542;-2.970;2023-03-23T04:09:44;23.88;;;4.18;;
77136;SDS011;66102;48.542;-2.970;2023-03-23T04:12:13;24.83;;;3.40;;
77136;SDS011;66102;48.542;-2.970;2023-03-23T04:14:40;22.00;;;3.97;;
77136;SDS011;66102;48.542;-2.970;2023-03-23T04:17:06;25.45;;;5.00;;
77136;SDS011;66102;48.542;-2.970;2023-03-23T04:19:34;28.00;;;4.32;;
77136;SDS011;66102;48.542;-2.970;2023-03-23T04:22:01;26.40;;;4.60;;
77136;SDS011;66102;48.542;-2.970;2023-03-23T04:24:27;24.90;;;4.13;;
77136;SDS011;66102;48.542;-2.970;2023-03-23T04:26:57;22.90;;;4.40;;
77136;SDS011;66102;48.542;-2.970;2023-03-23T04:29:23;28.42;;;4.40;;
77136;SDS011;66102;48.542;-2.970;2023-03-23T04:31:49;25.92;;;4.55;;
77136;SDS011;66102;48.542;-2.970;2023-03-23T04:34:17;29.48;;;4.78;;
77136;SDS011;66102;48.542;-2.970;2023-03-23T04:36:44;19.27;;;4.95;;
77136;SDS011;66102;48.542;-2.970;2023-03-23T04:39:11;34.08;;;4.35;;
77136;SDS011;66102;48.542;-2.970;2023-03-23T04:41:38;35.13;;;4.72;;
77136;SDS011;66102;48.542;-2.970;2023-03-23T04:44:05;25.65;;;4.35;;
77136;SDS011;66102;48.542;-2.970;2023-03-23T04:46:31;23.27;;;4.50;;
77136;SDS011;66102;48.542;-2.970;2023-03-23T04:48:58;27.10;;;4.75;;
77136;SDS011;66102;48.542;-2.970;2023-03-23T04:51:24;26.38;;;5.35;;
77136;SDS011;66102;48.542;-2.970;2023-03-23T04:53:52;28.48;;;4.25;;
77136;SDS011;66102;48.542;-2.970;2023-03-23T04:56:18;27.27;;;4.22;;
77136;SDS011;66102;48.542;-2.970;2023-03-23T04:58:44;27.35;;;4.55;;
77136;SDS011;66102;48.542;-2.970;2023-03-23T05:01:11;22.35;;;4.65;;
77136;SDS011;66102;48.542;-2.970;2023-03-23T05:03:42;23.85;;;5.00;;
77136;SDS011;66102;48.542;-2.970;2023-03-23T05:06:08;18.50;;;4.57;;
77136;SDS011;66102;48.542;-2.970;2023-03-23T05:08:34;22.20;;;3.90;;
77136;SDS011;66102;48.542;-2.970;2023-03-23T05:11:04;28.13;;;4.57;;
77136;SDS011;66102;48.542;-2.970;2023-03-23T05:13:30;21.55;;;4.57;;
77136;SDS011;66102;48.542;-2.970;2023-03-23T05:15:56;23.52;;;3.72;;
77136;SDS011;66102;48.542;-2.970;2023-03-23T05:18:23;43.60;;;5.00;;
77136;SDS011;66102;48.542;-2.970;2023-03-23T05:20:49;30.88;;;4.97;;
77136;SDS011;66102;48.542;-2.970;2023-03-23T05:23:17;26.40;;;5.03;;
77136;SDS011;66102;48.542;-2.970;2023-03-23T05:25:52;30.73;;;5.20;;
77136;SDS011;66102;48.542;-2.970;2023-03-23T05:28:18;31.75;;;5.10;;
77136;SDS011;66102;48.542;-2.970;2023-03-23T05:30:44;23.48;;;4.38;;
77136;SDS011;66102;48.542;-2.970;2023-03-23T05:33:10;24.30;;;4.68;;
77136;SDS011;66102;48.542;-2.970;2023-03-23T05:35:36;32.05;;;4.88;;
77136;SDS011;66102;48.542;-2.970;2023-03-23T05:38:02;24.83;;;4.68;;
77136;SDS011;66102;48.542;-2.970;2023-03-23T05:40:29;28.60;;;4.85;;
77136;SDS011;66102;48.542;-2.970;2023-03-23T05:42:55;29.08;;;5.50;;
77136;SDS011;66102;48.542;-2.970;2023-03-23T05:45:24;30.77;;;5.40;;
77136;SDS011;66102;48.542;-2.970;2023-03-23T05:47:51;31.02;;;5.50;;
77136;SDS011;66102;48.542;-2.970;2023-03-23T05:50:17;26.98;;;5.50;;
77136;SDS011;66102;48.542;-2.970;2023-03-23T05:52:43;23.25;;;4.43;;
77136;SDS011;66102;48.542;-2.970;2023-03-23T05:55:10;27.70;;;5.18;;
77136;SDS011;66102;48.542;-2.970;2023-03-23T05:57:36;24.65;;;4.78;;
77136;SDS011;66102;48.542;-2.970;2023-03-23T06:00:03;22.58;;;4.43;;
77136;SDS011;66102;48.542;-2.970;2023-03-23T06:02:39;21.30;;;4.18;;
77136;SDS011;66102;48.542;-2.970;2023-03-23T06:05:09;25.77;;;5.10;;
77136;SDS011;66102;48.542;-2.970;2023-03-23T06:07:35;23.73;;;3.97;;
77136;SDS011;66102;48.542;-2.970;2023-03-23T06:10:03;21.45;;;4.82;;
77136;SDS011;66102;48.542;-2.970;2023-03-23T06:12:29;29.10;;;4.68;;
77136;SDS011;66102;48.542;-2.970;2023-03-23T06:14:56;23.10;;;3.55;;
77136;SDS011;66102;48.542;-2.970;2023-03-23T06:17:23;26.58;;;5.10;;
77136;SDS011;66102;48.542;-2.970;2023-03-23T06:19:49;28.48;;;5.30;;
77136;SDS011;66102;48.542;-2.970;2023-03-23T06:22:16;32.47;;;5.30;;
77136;SDS011;66102;48.542;-2.970;2023-03-23T06:24:42;32.97;;;5.13;;
77136;SDS011;66102;48.542;-2.970;2023-03-23T06:27:09;35.28;;;7.40;;
77136;SDS011;66102;48.542;-2.970;2023-03-23T06:29:35;21.10;;;3.67;;
77136;SDS011;66102;48.542;-2.970;2023-03-23T06:32:02;30.42;;;5.28;;
77136;SDS011;66102;48.542;-2.970;2023-03-23T06:34:29;22.58;;;4.82;;
77136;SDS011;66102;48.542;-2.970;2023-03-23T06:36:56;28.80;;;5.10;;
77136;SDS011;66102;48.542;-2.970;2023-03-23T06:39:22;33.13;;;5.47;;
77136;SDS011;66102;48.542;-2.970;2023-03-23T06:41:48;31.40;;;4.65;;
77136;SDS011;66102;48.542;-2.970;2023-03-23T06:44:15;21.23;;;4.57;;
77136;SDS011;66102;48.542;-2.970;2023-03-23T06:46:41;24.40;;;5.30;;
77136;SDS011;66102;48.542;-2.970;2023-03-23T06:49:07;30.25;;;4.07;;
77136;SDS011;66102;48.542;-2.970;2023-03-23T06:51:34;27.33;;;4.75;;
77136;SDS011;66102;48.542;-2.970;2023-03-23T06:54:01;27.00;;;4.50;;
77136;SDS011;66102;48.542;-2.970;2023-03-23T06:56:27;29.25;;;4.63;;
77136;SDS011;66102;48.542;-2.970;2023-03-23T06:58:54;24.58;;;4.10;;
77136;SDS011;66102;48.542;-2.970;2023-03-23T07:01:21;21.35;;;4.85;;
77136;SDS011;66102;48.542;-2.970;2023-03-23T07:03:47;15.90;;;3.95;;
77136;SDS011;66102;48.542;-2.970;2023-03-23T07:06:13;21.58;;;4.25;;
77136;SDS011;66102;48.542;-2.970;2023-03-23T07:08:41;24.05;;;4.82;;
77136;SDS011;66102;48.542;-2.970;2023-03-23T07:11:07;21.83;;;4.78;;
77136;SDS011;66102;48.542;-2.970;2023-03-23T07:13:35;22.52;;;4.78;;
77136;SDS011;66102;48.542;-2.970;2023-03-23T07:16:04;24.67;;;4.35;;
77136;SDS011;66102;48.542;-2.970;2023-03-23T07:18:31;27.25;;;4.40;;
77136;SDS011;66102;48.542;-2.970;2023-03-23T07:20:57;21.90;;;3.60;;
77136;SDS011;66102;48.542;-2.970;2023-03-23T07:23:23;30.05;;;4.82;;
77136;SDS011;66102;48.542;-2.970;2023-03-23T07:25:49;30.90;;;5.30;;
77136;SDS011;66102;48.542;-2.970;2023-03-23T07:28:15;19.15;;;3.83;;
77136;SDS011;66102;48.542;-2.970;2023-03-23T07:30:41;30.88;;;4.45;;
77136;SDS011;66102;48.542;-2.970;2023-03-23T07:33:08;21.35;;;4.63;;
77136;SDS011;66102;48.542;-2.970;2023-03-23T07:35:34;21.40;;;5.10;;
77136;SDS011;66102;48.542;-2.970;2023-03-23T07:38:00;31.23;;;5.45;;
77136;SDS011;66102;48.542;-2.970;2023-03-23T07:40:27;30.55;;;5.13;;
77136;SDS011;66102;48.542;-2.970;2023-03-23T07:42:56;27.00;;;5.35;;
77136;SDS011;66102;48.542;-2.970;2023-03-23T07:45:22;29.25;;;4.88;;
77136;SDS011;66102;48.542;-2.970;2023-03-23T07:47:48;29.25;;;4.82;;
77136;SDS011;66102;48.542;-2.970;2023-03-23T07:50:15;24.25;;;4.47;;
77136;SDS011;66102;48.542;-2.970;2023-03-23T07:52:42;22.92;;;5.28;;
77136;SDS011;66102;48.542;-2.970;2023-03-23T07:55:09;24.88;;;4.07;;
77136;SDS011;66102;48.542;-2.970;2023-03-23T07:57:48;31.00;;;5.10;;
77136;SDS011;66102;48.542;-2.970;2023-03-23T08:00:15;23.48;;;4.45;;
77136;SDS011;66102;48.542;-2.970;2023-03-23T08:02:48;21.90;;;4.18;;
77136;SDS011;66102;48.542;-2.970;2023-03-23T08:05:15;27.67;;;5.20;;
77136;SDS011;66102;48.542;-2.970;2023-03-23T08:07:42;20.40;;;4.05;;
77136;SDS011;66102;48.542;-2.970;2023-03-23T08:10:10;22.90;;;5.50;;
77136;SDS011;66102;48.542;-2.970;2023-03-23T08:12:36;29.48;;;5.10;;
77136;SDS011;66102;48.542;-2.970;2023-03-23T08:15:03;28.85;;;5.03;;
77136;SDS011;66102;48.542;-2.970;2023-03-23T08:17:30;24.20;;;5.03;;
77136;SDS011;66102;48.542;-2.970;2023-03-23T08:19:56;34.45;;;5.18;;
77136;SDS011;66102;48.542;-2.970;2023-03-23T08:22:22;23.25;;;4.88;;
77136;SDS011;66102;48.542;-2.970;2023-03-23T08:24:49;30.08;;;4.20;;
77136;SDS011;66102;48.542;-2.970;2023-03-23T08:27:15;24.45;;;5.70;;
77136;SDS011;66102;48.542;-2.970;2023-03-23T08:29:44;31.73;;;5.63;;
77136;SDS011;66102;48.542;-2.970;2023-03-23T08:32:11;32.30;;;6.28;;
77136;SDS011;66102;48.542;-2.970;2023-03-23T08:34:37;27.30;;;4.90;;
77136;SDS011;66102;48.542;-2.970;2023-03-23T08:37:03;27.33;;;4.55;;
77136;SDS011;66102;48.542;-2.970;2023-03-23T08:39:30;33.20;;;5.90;;
77136;SDS011;66102;48.542;-2.970;2023-03-23T08:41:56;30.70;;;5.38;;
77136;SDS011;66102;48.542;-2.970;2023-03-23T08:44:22;28.80;;;4.55;;
77136;SDS011;66102;48.542;-2.970;2023-03-23T08:46:48;21.65;;;4.32;;
77136;SDS011;66102;48.542;-2.970;2023-03-23T08:49:22;20.65;;;4.53;;
77136;SDS011;66102;48.542;-2.970;2023-03-23T08:51:48;23.48;;;4.43;;
77136;SDS011;66102;48.542;-2.970;2023-03-23T08:54:15;23.13;;;5.45;;
77136;SDS011;66102;48.542;-2.970;2023-03-23T08:56:42;28.88;;;4.60;;
77136;SDS011;66102;48.542;-2.970;2023-03-23T08:59:08;32.40;;;5.82;;
77136;SDS011;66102;48.542;-2.970;2023-03-23T09:01:35;35.03;;;6.07;;
77136;SDS011;66102;48.542;-2.970;2023-03-23T09:04:01;31.40;;;5.13;;
77136;SDS011;66102;48.542;-2.970;2023-03-23T09:06:27;24.58;;;3.67;;
77136;SDS011;66102;48.542;-2.970;2023-03-23T09:08:53;27.60;;;5.03;;
77136;SDS011;66102;48.542;-2.970;2023-03-23T09:11:24;24.73;;;4.25;;
77136;SDS011;66102;48.542;-2.970;2023-03-23T09:13:50;22.45;;;4.22;;
77136;SDS011;66102;48.542;-2.970;2023-03-23T09:16:16;20.98;;;3.92;;
77136;SDS011;66102;48.542;-2.970;2023-03-23T09:18:42;25.33;;;4.55;;
77136;SDS011;66102;48.542;-2.970;2023-03-23T09:21:09;29.95;;;4.55;;
77136;SDS011;66102;48.542;-2.970;2023-03-23T09:23:35;21.50;;;3.92;;
77136;SDS011;66102;48.542;-2.970;2023-03-23T09:26:01;17.42;;;3.22;;
77136;SDS011;66102;48.542;-2.970;2023-03-23T09:28:28;20.70;;;3.50;;
77136;SDS011;66102;48.542;-2.970;2023-03-23T09:30:55;22.23;;;3.65;;
77136;SDS011;66102;48.542;-2.970;2023-03-23T09:33:24;19.27;;;4.22;;
77136;SDS011;66102;48.542;-2.970;2023-03-23T09:35:50;21.92;;;4.32;;
77136;SDS011;66102;48.542;-2.970;2023-03-23T09:38:17;26.33;;;3.95;;
77136;SDS011;66102;48.542;-2.970;2023-03-23T09:40:47;16.58;;;4.22;;
77136;SDS011;66102;48.542;-2.970;2023-03-23T09:43:38;27.67;;;3.75;;
77136;SDS011;66102;48.542;-2.970;2023-03-23T09:48:51;25.80;;;4.60;;
77136;SDS011;66102;48.542;-2.970;2023-03-23T09:53:46;20.48;;;4.07;;
77136;SDS011;66102;48.542;-2.970;2023-03-23T09:56:14;15.10;;;3.35;;
77136;SDS011;66102;48.542;-2.970;2023-03-23T09:58:46;15.75;;;3.13;;
77136;SDS011;66102;48.542;-2.970;2023-03-23T10:01:15;18.27;;;4.05;;
77136;SDS011;66102;48.542;-2.970;2023-03-23T10:03:42;22.75;;;4.20;;
77136;SDS011;66102;48.542;-2.970;2023-03-23T10:06:09;20.75;;;3.90;;
77136;SDS011;66102;48.542;-2.970;2023-03-23T10:08:37;17.95;;;3.63;;
77136;SDS011;66102;48.542;-2.970;2023-03-23T10:11:12;23.17;;;3.65;;
77136;SDS011;66102;48.542;-2.970;2023-03-23T10:13:48;15.23;;;3.22;;
77136;SDS011;66102;48.542;-2.970;2023-03-23T10:16:24;14.90;;;2.85;;
77136;SDS011;66102;48.542;-2.970;2023-03-23T10:21:37;15.90;;;3.33;;
77136;SDS011;66102;48.542;-2.970;2023-03-23T10:24:08;14.48;;;3.78;;
77136;SDS011;66102;48.542;-2.970;2023-03-23T10:29:24;15.48;;;3.08;;
77136;SDS011;66102;48.542;-2.970;2023-03-23T10:32:15;13.73;;;3.15;;
77136;SDS011;66102;48.542;-2.970;2023-03-23T10:37:14;14.70;;;2.90;;
77136;SDS011;66102;48.542;-2.970;2023-03-23T10:39:49;16.17;;;2.85;;
77136;SDS011;66102;48.542;-2.970;2023-03-23T10:42:27;15.13;;;2.70;;
77136;SDS011;66102;48.542;-2.970;2023-03-23T10:44:53;14.52;;;2.95;;
77136;SDS011;66102;48.542;-2.970;2023-03-23T10:47:21;14.35;;;2.70;;
77136;SDS011;66102;48.542;-2.970;2023-03-23T10:49:49;17.02;;;3.53;;
77136;SDS011;66102;48.542;-2.970;2023-03-23T10:52:34;12.00;;;2.42;;
77136;SDS011;66102;48.542;-2.970;2023-03-23T10:55:12;14.25;;;3.05;;
77136;SDS011;66102;48.542;-2.970;2023-03-23T10:57:41;11.85;;;2.47;;
77136;SDS011;66102;48.542;-2.970;2023-03-23T11:00:16;11.05;;;2.50;;
77136;SDS011;66102;48.542;-2.970;2023-03-23T11:03:43;18.80;;;2.88;;
77136;SDS011;66102;48.542;-2.970;2023-03-23T11:05:40;15.38;;;3.58;;
77136;SDS011;66102;48.542;-2.970;2023-03-23T11:08:13;15.27;;;2.75;;
77136;SDS011;66102;48.542;-2.970;2023-03-23T11:10:50;13.48;;;2.55;;
77136;SDS011;66102;48.542;-2.970;2023-03-23T11:15:45;10.20;;;1.90;;
77136;SDS011;66102;48.542;-2.970;2023-03-23T11:20:39;11.35;;;2.75;;
77136;SDS011;66102;48.542;-2.970;2023-03-23T11:28:22;17.20;;;3.10;;
77136;SDS011;66102;48.542;-2.970;2023-03-23T11:30:52;15.50;;;2.80;;
77136;SDS011;66102;48.542;-2.970;2023-03-23T11:33:19;12.38;;;2.53;;
77136;SDS011;66102;48.542;-2.970;2023-03-23T11:35:45;10.60;;;2.30;;
77136;SDS011;66102;48.542;-2.970;2023-03-23T11:38:16;15.20;;;2.50;;
77136;SDS011;66102;48.542;-2.970;2023-03-23T11:40:44;14.38;;;2.80;;
77136;SDS011;66102;48.542;-2.970;2023-03-23T11:43:13;13.70;;;2.72;;
77136;SDS011;66102;48.542;-2.970;2023-03-23T11:45:45;15.10;;;2.72;;
77136;SDS011;66102;48.542;-2.970;2023-03-23T11:56:15;15.32;;;3.08;;
77136;SDS011;66102;48.542;-2.970;2023-03-23T11:58:41;11.10;;;2.20;;
77136;SDS011;66102;48.542;-2.970;2023-03-23T12:01:12;18.65;;;3.33;;
77136;SDS011;66102;48.542;-2.970;2023-03-23T12:06:54;10.48;;;2.97;;
77136;SDS011;66102;48.542;-2.970;2023-03-23T12:09:15;18.02;;;2.70;;
77136;SDS011;66102;48.542;-2.970;2023-03-23T12:16:59;15.65;;;2.97;;
77136;SDS011;66102;48.542;-2.970;2023-03-23T12:20:31;15.32;;;3.45;;
77136;SDS011;66102;48.542;-2.970;2023-03-23T12:22:35;14.02;;;3.55;;
77136;SDS011;66102;48.542;-2.970;2023-03-23T12:25:08;13.80;;;2.78;;
77136;SDS011;66102;48.542;-2.970;2023-03-23T12:27:38;15.95;;;2.95;;
77136;SDS011;66102;48.542;-2.970;2023-03-23T12:40:12;17.15;;;4.05;;
77136;SDS011;66102;48.542;-2.970;2023-03-23T12:58:07;16.88;;;3.53;;
77136;SDS011;66102;48.542;-2.970;2023-03-23T13:08:43;15.05;;;3.00;;
77136;SDS011;66102;48.542;-2.970;2023-03-23T13:11:13;14.55;;;3.45;;
77136;SDS011;66102;48.542;-2.970;2023-03-23T13:13:44;19.75;;;4.13;;
77136;SDS011;66102;48.542;-2.970;2023-03-23T13:18:40;15.18;;;3.80;;
77136;SDS011;66102;48.542;-2.970;2023-03-23T13:21:11;15.30;;;3.33;;
77136;SDS011;66102;48.542;-2.970;2023-03-23T13:23:41;11.85;;;2.95;;
77136;SDS011;66102;48.542;-2.970;2023-03-23T13:26:12;10.85;;;2.58;;
77136;SDS011;66102;48.542;-2.970;2023-03-23T13:31:20;15.07;;;3.22;;
77136;SDS011;66102;48.542;-2.970;2023-03-23T13:33:51;12.77;;;2.80;;
77136;SDS011;66102;48.542;-2.970;2023-03-23T13:36:25;13.27;;;3.80;;
77136;SDS011;66102;48.542;-2.970;2023-03-23T13:38:51;10.48;;;2.47;;
77136;SDS011;66102;48.542;-2.970;2023-03-23T13:41:19;18.10;;;3.22;;
77136;SDS011;66102;48.542;-2.970;2023-03-23T13:43:46;19.35;;;3.60;;
77136;SDS011;66102;48.542;-2.970;2023-03-23T13:48:40;16.58;;;3.35;;
77136;SDS011;66102;48.542;-2.970;2023-03-23T13:51:23;10.45;;;3.03;;
77136;SDS011;66102;48.542;-2.970;2023-03-23T13:53:49;18.27;;;3.20;;
77136;SDS011;66102;48.542;-2.970;2023-03-23T13:56:17;14.60;;;2.85;;
77136;SDS011;66102;48.542;-2.970;2023-03-23T13:58:48;17.38;;;3.63;;
77136;SDS011;66102;48.542;-2.970;2023-03-23T14:01:18;16.98;;;4.00;;
77136;SDS011;66102;48.542;-2.970;2023-03-23T14:03:48;10.30;;;3.30;;
77136;SDS011;66102;48.542;-2.970;2023-03-23T14:06:19;18.77;;;3.30;;
77136;SDS011;66102;48.542;-2.970;2023-03-23T14:08:48;13.45;;;2.40;;
77136;SDS011;66102;48.542;-2.970;2023-03-23T14:11:17;16.70;;;3.40;;
77136;SDS011;66102;48.542;-2.970;2023-03-23T14:14:03;14.27;;;3.10;;
77136;SDS011;66102;48.542;-2.970;2023-03-23T14:19:00;10.48;;;2.42;;
77136;SDS011;66102;48.542;-2.970;2023-03-23T14:24:03;16.48;;;3.30;;
77136;SDS011;66102;48.542;-2.970;2023-03-23T14:26:33;10.80;;;2.67;;
77136;SDS011;66102;48.542;-2.970;2023-03-23T14:29:00;12.77;;;3.00;;
77136;SDS011;66102;48.542;-2.970;2023-03-23T14:31:26;12.70;;;2.60;;
77136;SDS011;66102;48.542;-2.970;2023-03-23T14:33:54;13.10;;;2.78;;
77136;SDS011;66102;48.542;-2.970;2023-03-23T14:36:28;20.52;;;3.53;;
77136;SDS011;66102;48.542;-2.970;2023-03-23T14:39:02;10.23;;;2.80;;
77136;SDS011;66102;48.542;-2.970;2023-03-23T14:41:29;14.32;;;3.15;;
77136;SDS011;66102;48.542;-2.970;2023-03-23T14:43:56;10.13;;;2.13;;
77136;SDS011;66102;48.542;-2.970;2023-03-23T14:46:22;10.95;;;3.05;;
77136;SDS011;66102;48.542;-2.970;2023-03-23T14:48:50;11.52;;;2.47;;
77136;SDS011;66102;48.542;-2.970;2023-03-23T14:51:17;9.00;;;2.10;;
77136;SDS011;66102;48.542;-2.970;2023-03-23T14:53:44;8.70;;;2.33;;
77136;SDS011;66102;48.542;-2.970;2023-03-23T14:56:11;11.00;;;2.05;;
77136;SDS011;66102;48.542;-2.970;2023-03-23T14:58:38;7.75;;;2.33;;
77136;SDS011;66102;48.542;-2.970;2023-03-23T15:01:06;9.82;;;1.73;;
77136;SDS011;66102;48.542;-2.970;2023-03-23T15:03:34;10.98;;;2.20;;
77136;SDS011;66102;48.542;-2.970;2023-03-23T15:06:04;7.55;;;2.30;;
77136;SDS011;66102;48.542;-2.970;2023-03-23T15:08:32;8.70;;;1.75;;
77136;SDS011;66102;48.542;-2.970;2023-03-23T15:11:11;4.95;;;1.58;;
77136;SDS011;66102;48.542;-2.970;2023-03-23T15:13:41;6.13;;;1.30;;
77136;SDS011;66102;48.542;-2.970;2023-03-23T15:16:30;7.60;;;1.70;;
77136;SDS011;66102;48.542;-2.970;2023-03-23T15:18:59;3.63;;;1.30;;
77136;SDS011;66102;48.542;-2.970;2023-03-23T15:21:28;3.97;;;1.27;;
77136;SDS011;66102;48.542;-2.970;2023-03-23T15:23:55;3.17;;;1.15;;
77136;SDS011;66102;48.542;-2.970;2023-03-23T15:27:02;5.53;;;1.10;;
77136;SDS011;66102;48.542;-2.970;2023-03-23T15:29:16;4.03;;;1.45;;
77136;SDS011;66102;48.542;-2.970;2023-03-23T15:31:44;5.60;;;1.30;;
77136;SDS011;66102;48.542;-2.970;2023-03-23T15:34:13;5.63;;;1.42;;
77136;SDS011;66102;48.542;-2.970;2023-03-23T15:36:40;5.65;;;1.27;;
77136;SDS011;66102;48.542;-2.970;2023-03-23T15:39:09;6.32;;;1.55;;
77136;SDS011;66102;48.542;-2.970;2023-03-23T15:41:45;8.48;;;2.03;;
77136;SDS011;66102;48.542;-2.970;2023-03-23T15:44:12;8.63;;;2.10;;
77136;SDS011;66102;48.542;-2.970;2023-03-23T15:46:49;6.65;;;2.38;;
77136;SDS011;66102;48.542;-2.970;2023-03-23T15:49:15;8.90;;;1.95;;
77136;SDS011;66102;48.542;-2.970;2023-03-23T15:51:41;10.18;;;2.10;;
77136;SDS011;66102;48.542;-2.970;2023-03-23T15:54:15;6.15;;;1.40;;
77136;SDS011;66102;48.542;-2.970;2023-03-23T15:56:42;9.35;;;1.88;;
77136;SDS011;66102;48.542;-2.970;2023-03-23T15:59:09;10.07;;;1.70;;
77136;SDS011;66102;48.542;-2.970;2023-03-23T16:01:36;9.60;;;1.48;;
77136;SDS011;66102;48.542;-2.970;2023-03-23T16:04:07;7.93;;;1.52;;
77136;SDS011;66102;48.542;-2.970;2023-03-23T16:06:34;13.55;;;2.13;;
77136;SDS011;66102;48.542;-2.970;2023-03-23T16:09:01;7.63;;;1.70;;
77136;SDS011;66102;48.542;-2.970;2023-03-23T16:11:28;9.50;;;2.50;;
77136;SDS011;66102;48.542;-2.970;2023-03-23T16:13:55;9.93;;;2.00;;